sensor_id;sensor_type;location;lat;lon;timestamp;pressure;altitude;pressure_sealevel;temperature;humidity
76337;BME280;65157;50.082;18.178;2023-09-19T00:00:07;98500.21;;;19.54;71.08
76337;BME280;65157;50.082;18.178;2023-09-19T00:02:56;98496.41;;;19.55;71.01
76337;BME280;65157;50.082;18.178;2023-09-19T00:05:23;98499.14;;;19.54;71.13
76337;BME280;65157;50.082;18.178;2023-09-19T00:07:51;98493.75;;;19.54;71.21
76337;BME280;65157;50.082;18.178;2023-09-19T00:10:17;98492.29;;;19.55;71.22
76337;BME280;65157;50.082;18.178;2023-09-19T00:12:44;98487.94;;;19.55;71.42
76337;BME280;65157;50.082;18.178;2023-09-19T00:15:11;98481.55;;;19.55;71.26
76337;BME280;65157;50.082;18.178;2023-09-19T00:17:37;98482.67;;;19.54;71.29
76337;BME280;65157;50.082;18.178;2023-09-19T00:20:04;98482.01;;;19.56;71.38
76337;BME280;65157;50.082;18.178;2023-09-19T00:22:31;98481.27;;;19.56;71.77
76337;BME280;65157;50.082;18.178;2023-09-19T00:24:58;98485.25;;;19.55;71.74
76337;BME280;65157;50.082;18.178;2023-09-19T00:27:24;98482.67;;;19.54;72.03
76337;BME280;65157;50.082;18.178;2023-09-19T00:29:51;98479.52;;;19.53;72.06
76337;BME280;65157;50.082;18.178;2023-09-19T00:32:17;98479.79;;;19.54;71.56
76337;BME280;65157;50.082;18.178;2023-09-19T00:34:44;98479.52;;;19.55;71.11
76337;BME280;65157;50.082;18.178;2023-09-19T00:37:11;98477.58;;;19.57;71.16
76337;BME280;65157;50.082;18.178;2023-09-19T00:39:37;98479.00;;;19.57;71.16
76337;BME280;65157;50.082;18.178;2023-09-19T00:42:04;98475.36;;;19.58;71.08
76337;BME280;65157;50.082;18.178;2023-09-19T00:44:31;98477.52;;;19.58;71.04
76337;BME280;65157;50.082;18.178;2023-09-19T00:46:57;98473.13;;;19.57;71.43
76337;BME280;65157;50.082;18.178;2023-09-19T00:49:24;98473.50;;;19.59;71.51
76337;BME280;65157;50.082;18.178;2023-09-19T00:51:51;98465.36;;;19.56;71.03
76337;BME280;65157;50.082;18.178;2023-09-19T00:54:18;98468.13;;;19.58;70.98
76337;BME280;65157;50.082;18.178;2023-09-19T00:56:45;98463.29;;;19.59;70.97
76337;BME280;65157;50.082;18.178;2023-09-19T00:59:12;98460.94;;;19.59;70.97
76337;BME280;65157;50.082;18.178;2023-09-19T01:01:39;98460.30;;;19.58;71.13
76337;BME280;65157;50.082;18.178;2023-09-19T01:04:06;98457.71;;;19.57;71.29
76337;BME280;65157;50.082;18.178;2023-09-19T01:06:33;98452.46;;;19.56;71.62
76337;BME280;65157;50.082;18.178;2023-09-19T01:08:59;98452.63;;;19.56;71.32
76337;BME280;65157;50.082;18.178;2023-09-19T01:11:40;98451.14;;;19.55;71.48
76337;BME280;65157;50.082;18.178;2023-09-19T01:14:24;98452.52;;;19.55;71.48
76337;BME280;65157;50.082;18.178;2023-09-19T01:17:05;98451.13;;;19.55;71.56
76337;BME280;65157;50.082;18.178;2023-09-19T01:22:26;98443.47;;;19.52;71.68
76337;BME280;65157;50.082;18.178;2023-09-19T01:28:20;98441.13;;;19.52;71.56
76337;BME280;65157;50.082;18.178;2023-09-19T01:30:47;98441.84;;;19.53;71.44
76337;BME280;65157;50.082;18.178;2023-09-19T01:33:13;98438.89;;;19.53;71.30
76337;BME280;65157;50.082;18.178;2023-09-19T01:35:40;98440.41;;;19.54;71.35
76337;BME280;65157;50.082;18.178;2023-09-19T01:38:06;98441.77;;;19.55;71.48
76337;BME280;65157;50.082;18.178;2023-09-19T01:40:41;98444.04;;;19.56;71.17
76337;BME280;65157;50.082;18.178;2023-09-19T01:43:20;98441.80;;;19.57;71.32
76337;BME280;65157;50.082;18.178;2023-09-19T01:45:59;98440.50;;;19.57;71.28
76337;BME280;65157;50.082;18.178;2023-09-19T01:48:38;98443.08;;;19.58;71.20
76337;BME280;65157;50.082;18.178;2023-09-19T01:51:09;98444.19;;;19.58;71.36
76337;BME280;65157;50.082;18.178;2023-09-19T01:54:02;98448.42;;;19.59;71.66
76337;BME280;65157;50.082;18.178;2023-09-19T01:56:47;98444.72;;;19.58;71.61
76337;BME280;65157;50.082;18.178;2023-09-19T01:59:23;98451.31;;;19.58;71.47
76337;BME280;65157;50.082;18.178;2023-09-19T02:01:52;98454.80;;;19.59;71.19
76337;BME280;65157;50.082;18.178;2023-09-19T02:04:19;98451.44;;;19.57;71.09
76337;BME280;65157;50.082;18.178;2023-09-19T02:06:46;98452.64;;;19.61;71.14
76337;BME280;65157;50.082;18.178;2023-09-19T02:09:14;98454.69;;;19.62;71.21
76337;BME280;65157;50.082;18.178;2023-09-19T02:11:40;98455.73;;;19.63;71.29
76337;BME280;65157;50.082;18.178;2023-09-19T02:14:07;98456.13;;;19.62;71.43
76337;BME280;65157;50.082;18.178;2023-09-19T02:16:34;98454.38;;;19.62;71.39
76337;BME280;65157;50.082;18.178;2023-09-19T02:19:01;98453.85;;;19.62;71.28
76337;BME280;65157;50.082;18.178;2023-09-19T02:21:28;98455.55;;;19.63;71.33
76337;BME280;65157;50.082;18.178;2023-09-19T02:23:55;98455.27;;;19.64;71.26
76337;BME280;65157;50.082;18.178;2023-09-19T02:26:22;98453.96;;;19.63;71.78
76337;BME280;65157;50.082;18.178;2023-09-19T02:28:48;98451.23;;;19.61;71.83
76337;BME280;65157;50.082;18.178;2023-09-19T02:31:15;98454.21;;;19.62;71.70
76337;BME280;65157;50.082;18.178;2023-09-19T02:33:42;98450.25;;;19.60;71.82
76337;BME280;65157;50.082;18.178;2023-09-19T02:36:08;98452.23;;;19.60;71.48
76337;BME280;65157;50.082;18.178;2023-09-19T02:38:35;98450.59;;;19.60;71.76
76337;BME280;65157;50.082;18.178;2023-09-19T02:41:02;98449.48;;;19.61;71.76
76337;BME280;65157;50.082;18.178;2023-09-19T02:43:29;98446.81;;;19.60;71.96
76337;BME280;65157;50.082;18.178;2023-09-19T02:45:55;98444.46;;;19.61;72.05
76337;BME280;65157;50.082;18.178;2023-09-19T02:48:22;98445.31;;;19.61;72.05
76337;BME280;65157;50.082;18.178;2023-09-19T02:50:51;98437.20;;;19.58;72.07
76337;BME280;65157;50.082;18.178;2023-09-19T02:53:18;98434.51;;;19.60;72.57
76337;BME280;65157;50.082;18.178;2023-09-19T02:55:46;98426.88;;;19.59;72.54
76337;BME280;65157;50.082;18.178;2023-09-19T02:58:13;98426.20;;;19.59;72.85
76337;BME280;65157;50.082;18.178;2023-09-19T03:00:40;98422.95;;;19.57;72.92
76337;BME280;65157;50.082;18.178;2023-09-19T03:03:06;98424.40;;;19.57;73.13
76337;BME280;65157;50.082;18.178;2023-09-19T03:05:34;98426.79;;;19.56;72.94
76337;BME280;65157;50.082;18.178;2023-09-19T03:08:01;98431.54;;;19.57;73.24
76337;BME280;65157;50.082;18.178;2023-09-19T03:10:28;98433.73;;;19.56;73.09
76337;BME280;65157;50.082;18.178;2023-09-19T03:12:55;98434.67;;;19.56;73.33
76337;BME280;65157;50.082;18.178;2023-09-19T03:15:21;98433.17;;;19.57;73.67
76337;BME280;65157;50.082;18.178;2023-09-19T03:17:48;98434.28;;;19.57;73.55
76337;BME280;65157;50.082;18.178;2023-09-19T03:20:15;98439.45;;;19.57;73.61
76337;BME280;65157;50.082;18.178;2023-09-19T03:22:45;98443.55;;;19.57;73.59
76337;BME280;65157;50.082;18.178;2023-09-19T03:25:12;98445.42;;;19.54;73.52
76337;BME280;65157;50.082;18.178;2023-09-19T03:27:39;98449.74;;;19.52;73.75
76337;BME280;65157;50.082;18.178;2023-09-19T03:30:07;98452.23;;;19.49;73.79
76337;BME280;65157;50.082;18.178;2023-09-19T03:32:35;98448.29;;;19.45;73.99
76337;BME280;65157;50.082;18.178;2023-09-19T03:35:02;98445.55;;;19.43;73.64
76337;BME280;65157;50.082;18.178;2023-09-19T03:37:29;98447.73;;;19.43;73.92
76337;BME280;65157;50.082;18.178;2023-09-19T03:39:56;98446.32;;;19.41;74.18
76337;BME280;65157;50.082;18.178;2023-09-19T03:42:22;98445.09;;;19.41;74.00
76337;BME280;65157;50.082;18.178;2023-09-19T03:44:49;98444.63;;;19.42;74.17
76337;BME280;65157;50.082;18.178;2023-09-19T03:47:16;98449.11;;;19.44;74.18
76337;BME280;65157;50.082;18.178;2023-09-19T03:49:42;98450.38;;;19.45;74.32
76337;BME280;65157;50.082;18.178;2023-09-19T03:52:09;98450.86;;;19.48;74.56
76337;BME280;65157;50.082;18.178;2023-09-19T03:54:35;98454.05;;;19.50;74.84
76337;BME280;65157;50.082;18.178;2023-09-19T03:57:02;98452.11;;;19.52;74.79
76337;BME280;65157;50.082;18.178;2023-09-19T03:59:29;98451.61;;;19.53;74.86
76337;BME280;65157;50.082;18.178;2023-09-19T04:01:55;98451.38;;;19.54;74.97
76337;BME280;65157;50.082;18.178;2023-09-19T04:04:22;98455.65;;;19.54;74.73
76337;BME280;65157;50.082;18.178;2023-09-19T04:06:48;98453.70;;;19.54;74.94
76337;BME280;65157;50.082;18.178;2023-09-19T04:09:15;98454.13;;;19.53;74.72
76337;BME280;65157;50.082;18.178;2023-09-19T04:11:41;98455.10;;;19.50;74.72
76337;BME280;65157;50.082;18.178;2023-09-19T04:14:08;98455.31;;;19.48;74.93
76337;BME280;65157;50.082;18.178;2023-09-19T04:16:35;98455.60;;;19.43;74.85
76337;BME280;65157;50.082;18.178;2023-09-19T04:19:02;98453.23;;;19.40;74.76
76337;BME280;65157;50.082;18.178;2023-09-19T04:21:28;98453.70;;;19.36;74.51
76337;BME280;65157;50.082;18.178;2023-09-19T04:23:55;98455.17;;;19.32;74.54
76337;BME280;65157;50.082;18.178;2023-09-19T04:26:21;98456.25;;;19.24;74.65
76337;BME280;65157;50.082;18.178;2023-09-19T04:28:48;98455.68;;;19.14;75.43
76337;BME280;65157;50.082;18.178;2023-09-19T04:31:15;98456.30;;;19.05;76.14
76337;BME280;65157;50.082;18.178;2023-09-19T04:33:42;98464.11;;;18.94;76.96
76337;BME280;65157;50.082;18.178;2023-09-19T04:36:09;98475.71;;;18.84;76.75
76337;BME280;65157;50.082;18.178;2023-09-19T04:38:36;98476.48;;;18.78;77.29
76337;BME280;65157;50.082;18.178;2023-09-19T04:41:02;98479.30;;;18.68;77.22
76337;BME280;65157;50.082;18.178;2023-09-19T04:43:29;98489.79;;;18.60;77.58
76337;BME280;65157;50.082;18.178;2023-09-19T04:45:56;98487.59;;;18.51;77.25
76337;BME280;65157;50.082;18.178;2023-09-19T04:48:22;98485.80;;;18.39;77.08
76337;BME280;65157;50.082;18.178;2023-09-19T04:50:49;98501.28;;;18.33;76.72
76337;BME280;65157;50.082;18.178;2023-09-19T04:53:16;98507.84;;;18.23;76.78
76337;BME280;65157;50.082;18.178;2023-09-19T04:55:43;98513.95;;;18.15;77.02
76337;BME280;65157;50.082;18.178;2023-09-19T04:58:09;98516.93;;;18.06;77.44
76337;BME280;65157;50.082;18.178;2023-09-19T05:00:36;98519.64;;;18.00;77.86
76337;BME280;65157;50.082;18.178;2023-09-19T05:03:03;98524.77;;;17.92;78.02
76337;BME280;65157;50.082;18.178;2023-09-19T05:05:30;98530.52;;;17.85;78.47
76337;BME280;65157;50.082;18.178;2023-09-19T05:07:57;98539.27;;;17.77;78.79
76337;BME280;65157;50.082;18.178;2023-09-19T05:10:25;98544.77;;;17.71;78.99
76337;BME280;65157;50.082;18.178;2023-09-19T05:12:54;98549.66;;;17.68;79.48
76337;BME280;65157;50.082;18.178;2023-09-19T05:15:21;98546.89;;;17.65;79.67
76337;BME280;65157;50.082;18.178;2023-09-19T05:17:48;98551.19;;;17.65;79.55
76337;BME280;65157;50.082;18.178;2023-09-19T05:20:15;98548.77;;;17.66;79.77
76337;BME280;65157;50.082;18.178;2023-09-19T05:22:42;98548.73;;;17.68;79.62
76337;BME280;65157;50.082;18.178;2023-09-19T05:25:09;98548.02;;;17.70;79.89
76337;BME280;65157;50.082;18.178;2023-09-19T05:27:36;98545.35;;;17.75;79.71
76337;BME280;65157;50.082;18.178;2023-09-19T05:30:03;98540.27;;;17.78;79.98
76337;BME280;65157;50.082;18.178;2023-09-19T05:32:30;98538.83;;;17.80;80.29
76337;BME280;65157;50.082;18.178;2023-09-19T05:34:56;98536.09;;;17.83;80.22
76337;BME280;65157;50.082;18.178;2023-09-19T05:37:23;98536.81;;;17.85;80.58
76337;BME280;65157;50.082;18.178;2023-09-19T05:39:49;98540.09;;;17.88;80.47
76337;BME280;65157;50.082;18.178;2023-09-19T05:42:16;98550.14;;;17.90;80.29
76337;BME280;65157;50.082;18.178;2023-09-19T05:44:43;98551.56;;;17.90;79.99
76337;BME280;65157;50.082;18.178;2023-09-19T05:47:09;98555.61;;;17.88;79.99
76337;BME280;65157;50.082;18.178;2023-09-19T05:49:36;98560.63;;;17.86;80.04
76337;BME280;65157;50.082;18.178;2023-09-19T05:52:03;98563.36;;;17.85;80.33
76337;BME280;65157;50.082;18.178;2023-09-19T05:54:29;98571.05;;;17.83;80.60
76337;BME280;65157;50.082;18.178;2023-09-19T05:56:56;98573.83;;;17.78;80.68
76337;BME280;65157;50.082;18.178;2023-09-19T05:59:23;98578.70;;;17.75;80.93
76337;BME280;65157;50.082;18.178;2023-09-19T06:01:49;98574.95;;;17.73;80.80
76337;BME280;65157;50.082;18.178;2023-09-19T06:04:16;98581.91;;;17.73;81.07
76337;BME280;65157;50.082;18.178;2023-09-19T06:06:42;98580.23;;;17.72;81.18
76337;BME280;65157;50.082;18.178;2023-09-19T06:09:10;98584.13;;;17.70;81.43
76337;BME280;65157;50.082;18.178;2023-09-19T06:11:37;98589.70;;;17.72;81.42
76337;BME280;65157;50.082;18.178;2023-09-19T06:14:03;98596.50;;;17.73;81.64
76337;BME280;65157;50.082;18.178;2023-09-19T06:16:30;98594.80;;;17.68;81.65
76337;BME280;65157;50.082;18.178;2023-09-19T06:18:57;98603.52;;;17.71;81.82
76337;BME280;65157;50.082;18.178;2023-09-19T06:21:24;98604.64;;;17.68;81.80
76337;BME280;65157;50.082;18.178;2023-09-19T06:23:51;98607.85;;;17.64;81.68
76337;BME280;65157;50.082;18.178;2023-09-19T06:26:18;98611.93;;;17.66;81.85
76337;BME280;65157;50.082;18.178;2023-09-19T06:28:45;98617.11;;;17.68;82.12
76337;BME280;65157;50.082;18.178;2023-09-19T06:31:13;98620.27;;;17.71;81.95
76337;BME280;65157;50.082;18.178;2023-09-19T06:33:39;98622.27;;;17.72;81.96
76337;BME280;65157;50.082;18.178;2023-09-19T06:36:07;98628.77;;;17.76;82.01
76337;BME280;65157;50.082;18.178;2023-09-19T06:38:33;98626.45;;;17.76;81.79
76337;BME280;65157;50.082;18.178;2023-09-19T06:41:00;98636.35;;;17.79;82.11
76337;BME280;65157;50.082;18.178;2023-09-19T06:43:27;98630.61;;;17.82;82.11
76337;BME280;65157;50.082;18.178;2023-09-19T06:45:53;98629.98;;;17.85;81.67
76337;BME280;65157;50.082;18.178;2023-09-19T06:48:20;98629.13;;;17.85;81.88
76337;BME280;65157;50.082;18.178;2023-09-19T06:50:47;98637.30;;;17.87;82.46
76337;BME280;65157;50.082;18.178;2023-09-19T06:53:13;98647.85;;;17.91;82.74
76337;BME280;65157;50.082;18.178;2023-09-19T06:55:40;98652.66;;;17.96;82.78
76337;BME280;65157;50.082;18.178;2023-09-19T06:58:07;98654.81;;;18.00;82.67
76337;BME280;65157;50.082;18.178;2023-09-19T07:00:33;98665.00;;;18.04;82.19
76337;BME280;65157;50.082;18.178;2023-09-19T07:03:05;98668.92;;;18.11;82.14
76337;BME280;65157;50.082;18.178;2023-09-19T07:05:34;98665.20;;;18.17;82.10
76337;BME280;65157;50.082;18.178;2023-09-19T07:08:01;98670.16;;;18.22;82.07
76337;BME280;65157;50.082;18.178;2023-09-19T07:10:28;98670.67;;;18.26;82.29
76337;BME280;65157;50.082;18.178;2023-09-19T07:13:05;98673.73;;;18.30;82.21
76337;BME280;65157;50.082;18.178;2023-09-19T07:15:32;98677.63;;;18.35;82.08
76337;BME280;65157;50.082;18.178;2023-09-19T07:17:59;98680.05;;;18.40;82.30
76337;BME280;65157;50.082;18.178;2023-09-19T07:20:27;98683.63;;;18.47;82.57
76337;BME280;65157;50.082;18.178;2023-09-19T07:22:54;98686.36;;;18.53;82.65
76337;BME280;65157;50.082;18.178;2023-09-19T07:25:21;98692.05;;;18.57;82.34
76337;BME280;65157;50.082;18.178;2023-09-19T07:27:47;98692.54;;;18.62;82.64
76337;BME280;65157;50.082;18.178;2023-09-19T07:30:14;98698.64;;;18.66;82.66
76337;BME280;65157;50.082;18.178;2023-09-19T07:32:41;98707.33;;;18.69;82.65
76337;BME280;65157;50.082;18.178;2023-09-19T07:35:07;98710.20;;;18.71;82.79
76337;BME280;65157;50.082;18.178;2023-09-19T07:37:34;98718.13;;;18.73;82.71
76337;BME280;65157;50.082;18.178;2023-09-19T07:40:03;98719.27;;;18.76;82.13
76337;BME280;65157;50.082;18.178;2023-09-19T07:42:30;98726.17;;;18.81;81.87
76337;BME280;65157;50.082;18.178;2023-09-19T07:44:56;98723.34;;;18.85;82.12
76337;BME280;65157;50.082;18.178;2023-09-19T07:47:23;98730.38;;;18.86;82.30
76337;BME280;65157;50.082;18.178;2023-09-19T07:49:49;98731.42;;;18.89;82.21
76337;BME280;65157;50.082;18.178;2023-09-19T07:52:16;98736.94;;;18.93;82.26
76337;BME280;65157;50.082;18.178;2023-09-19T07:54:42;98735.38;;;18.94;82.44
76337;BME280;65157;50.082;18.178;2023-09-19T07:57:10;98735.60;;;19.00;82.70
76337;BME280;65157;50.082;18.178;2023-09-19T07:59:37;98734.55;;;19.06;82.32
76337;BME280;65157;50.082;18.178;2023-09-19T08:02:05;98728.85;;;19.14;82.50
76337;BME280;65157;50.082;18.178;2023-09-19T08:04:31;98730.09;;;19.23;82.74
76337;BME280;65157;50.082;18.178;2023-09-19T08:06:58;98733.54;;;19.30;82.66
76337;BME280;65157;50.082;18.178;2023-09-19T08:09:24;98731.81;;;19.36;82.48
76337;BME280;65157;50.082;18.178;2023-09-19T08:11:51;98732.05;;;19.42;82.07
76337;BME280;65157;50.082;18.178;2023-09-19T08:14:18;98736.10;;;19.45;81.32
76337;BME280;65157;50.082;18.178;2023-09-19T08:16:44;98735.20;;;19.47;81.26
76337;BME280;65157;50.082;18.178;2023-09-19T08:19:11;98737.04;;;19.50;81.41
76337;BME280;65157;50.082;18.178;2023-09-19T08:21:37;98743.21;;;19.55;81.44
76337;BME280;65157;50.082;18.178;2023-09-19T08:24:04;98748.70;;;19.62;81.59
76337;BME280;65157;50.082;18.178;2023-09-19T08:26:31;98752.90;;;19.67;81.72
76337;BME280;65157;50.082;18.178;2023-09-19T08:28:58;98752.52;;;19.70;81.50
76337;BME280;65157;50.082;18.178;2023-09-19T08:31:25;98750.93;;;19.71;81.05
76337;BME280;65157;50.082;18.178;2023-09-19T08:33:51;98757.04;;;19.78;80.89
76337;BME280;65157;50.082;18.178;2023-09-19T08:36:18;98756.66;;;19.78;80.87
76337;BME280;65157;50.082;18.178;2023-09-19T08:38:45;98764.38;;;19.80;80.61
76337;BME280;65157;50.082;18.178;2023-09-19T08:41:11;98764.36;;;19.80;80.09
76337;BME280;65157;50.082;18.178;2023-09-19T08:43:38;98767.38;;;19.80;80.23
76337;BME280;65157;50.082;18.178;2023-09-19T08:48:32;98773.06;;;19.77;80.07
76337;BME280;65157;50.082;18.178;2023-09-19T08:51:03;98774.71;;;19.78;80.17
76337;BME280;65157;50.082;18.178;2023-09-19T08:53:41;98772.41;;;19.80;80.13
76337;BME280;65157;50.082;18.178;2023-09-19T08:56:10;98772.17;;;19.81;80.08
76337;BME280;65157;50.082;18.178;2023-09-19T08:58:46;98774.29;;;19.83;80.21
76337;BME280;65157;50.082;18.178;2023-09-19T09:01:15;98776.09;;;19.85;80.24
76337;BME280;65157;50.082;18.178;2023-09-19T09:03:43;98777.08;;;19.86;80.21
76337;BME280;65157;50.082;18.178;2023-09-19T09:06:09;98775.88;;;19.89;80.19
76337;BME280;65157;50.082;18.178;2023-09-19T09:08:36;98775.89;;;19.91;80.57
76337;BME280;65157;50.082;18.178;2023-09-19T09:11:04;98773.30;;;19.94;80.76
76337;BME280;65157;50.082;18.178;2023-09-19T09:13:30;98774.65;;;19.95;80.71
76337;BME280;65157;50.082;18.178;2023-09-19T09:15:57;98778.66;;;19.94;80.28
76337;BME280;65157;50.082;18.178;2023-09-19T09:18:24;98781.37;;;19.94;80.34
76337;BME280;65157;50.082;18.178;2023-09-19T09:20:50;98781.40;;;19.92;80.52
76337;BME280;65157;50.082;18.178;2023-09-19T09:23:17;98784.02;;;19.90;80.16
76337;BME280;65157;50.082;18.178;2023-09-19T09:25:54;98787.89;;;19.87;79.82
76337;BME280;65157;50.082;18.178;2023-09-19T09:28:25;98788.22;;;19.75;79.37
76337;BME280;65157;50.082;18.178;2023-09-19T09:30:52;98788.85;;;19.66;79.55
76337;BME280;65157;50.082;18.178;2023-09-19T09:33:19;98790.33;;;19.59;79.67
76337;BME280;65157;50.082;18.178;2023-09-19T09:35:53;98793.64;;;19.58;80.08
76337;BME280;65157;50.082;18.178;2023-09-19T09:38:21;98797.73;;;19.58;80.32
76337;BME280;65157;50.082;18.178;2023-09-19T09:40:49;98800.77;;;19.61;80.30
76337;BME280;65157;50.082;18.178;2023-09-19T09:43:28;98807.52;;;19.57;80.37
76337;BME280;65157;50.082;18.178;2023-09-19T09:46:15;98820.15;;;19.48;80.39
76337;BME280;65157;50.082;18.178;2023-09-19T09:48:42;98821.02;;;19.35;80.40
76337;BME280;65157;50.082;18.178;2023-09-19T09:51:09;98823.79;;;19.28;80.31
76337;BME280;65157;50.082;18.178;2023-09-19T09:53:36;98825.03;;;19.24;80.78
76337;BME280;65157;50.082;18.178;2023-09-19T09:56:07;98830.85;;;19.25;80.92
76337;BME280;65157;50.082;18.178;2023-09-19T09:58:51;98834.98;;;19.25;81.24
76337;BME280;65157;50.082;18.178;2023-09-19T10:01:18;98839.89;;;19.26;81.66
76337;BME280;65157;50.082;18.178;2023-09-19T10:03:45;98844.20;;;19.28;82.04
76337;BME280;65157;50.082;18.178;2023-09-19T10:06:13;98842.13;;;19.31;82.05
76337;BME280;65157;50.082;18.178;2023-09-19T10:08:39;98842.88;;;19.33;81.70
76337;BME280;65157;50.082;18.178;2023-09-19T10:11:15;98845.80;;;19.41;82.51
76337;BME280;65157;50.082;18.178;2023-09-19T10:13:43;98849.11;;;19.48;82.76
76337;BME280;65157;50.082;18.178;2023-09-19T10:16:11;98855.04;;;19.59;82.54
76337;BME280;65157;50.082;18.178;2023-09-19T10:18:40;98859.55;;;19.68;82.33
76337;BME280;65157;50.082;18.178;2023-09-19T10:21:09;98854.73;;;19.76;82.29
76337;BME280;65157;50.082;18.178;2023-09-19T10:23:37;98855.62;;;19.87;82.35
76337;BME280;65157;50.082;18.178;2023-09-19T10:26:05;98849.08;;;20.00;81.87
76337;BME280;65157;50.082;18.178;2023-09-19T10:28:33;98853.52;;;20.13;81.87
76337;BME280;65157;50.082;18.178;2023-09-19T10:31:01;98853.63;;;20.23;81.15
76337;BME280;65157;50.082;18.178;2023-09-19T10:33:35;98856.16;;;20.34;81.62
76337;BME280;65157;50.082;18.178;2023-09-19T10:36:04;98858.72;;;20.44;80.64
76337;BME280;65157;50.082;18.178;2023-09-19T10:38:33;98860.12;;;20.50;80.05
76337;BME280;65157;50.082;18.178;2023-09-19T10:41:00;98864.11;;;20.55;80.43
76337;BME280;65157;50.082;18.178;2023-09-19T10:43:32;98866.23;;;20.57;78.78
76337;BME280;65157;50.082;18.178;2023-09-19T10:46:07;98865.02;;;20.57;78.74
76337;BME280;65157;50.082;18.178;2023-09-19T10:48:33;98862.38;;;20.61;78.73
76337;BME280;65157;50.082;18.178;2023-09-19T10:53:29;98869.06;;;20.73;78.58
76337;BME280;65157;50.082;18.178;2023-09-19T10:55:59;98869.00;;;20.80;78.40
76337;BME280;65157;50.082;18.178;2023-09-19T10:58:31;98870.08;;;20.87;77.79
76337;BME280;65157;50.082;18.178;2023-09-19T11:00:59;98871.61;;;20.83;76.71
76337;BME280;65157;50.082;18.178;2023-09-19T11:06:42;98877.09;;;20.76;75.66
76337;BME280;65157;50.082;18.178;2023-09-19T11:09:09;98877.00;;;20.73;76.18
76337;BME280;65157;50.082;18.178;2023-09-19T11:11:39;98879.26;;;20.70;75.27
76337;BME280;65157;50.082;18.178;2023-09-19T11:30:34;98875.35;;;20.78;76.31
76337;BME280;65157;50.082;18.178;2023-09-19T11:33:26;98878.14;;;20.86;76.40
76337;BME280;65157;50.082;18.178;2023-09-19T11:41:38;98881.76;;;21.06;74.81
76337;BME280;65157;50.082;18.178;2023-09-19T11:46:34;98875.64;;;21.28;74.86
76337;BME280;65157;50.082;18.178;2023-09-19T11:49:19;98873.43;;;21.36;72.83
76337;BME280;65157;50.082;18.178;2023-09-19T11:51:46;98871.08;;;21.42;73.30
76337;BME280;65157;50.082;18.178;2023-09-19T11:54:14;98869.06;;;21.50;73.21
76337;BME280;65157;50.082;18.178;2023-09-19T11:56:41;98869.77;;;21.58;73.09
76337;BME280;65157;50.082;18.178;2023-09-19T11:59:09;98873.29;;;21.60;71.22
76337;BME280;65157;50.082;18.178;2023-09-19T12:01:38;98870.58;;;21.59;71.55
76337;BME280;65157;50.082;18.178;2023-09-19T12:04:11;98876.63;;;21.61;71.42
76337;BME280;65157;50.082;18.178;2023-09-19T12:06:38;98873.92;;;21.63;71.53
76337;BME280;65157;50.082;18.178;2023-09-19T12:09:05;98872.77;;;21.68;71.67
76337;BME280;65157;50.082;18.178;2023-09-19T12:11:32;98871.16;;;21.70;70.64
76337;BME280;65157;50.082;18.178;2023-09-19T12:13:59;98872.40;;;21.72;70.13
76337;BME280;65157;50.082;18.178;2023-09-19T12:16:26;98871.88;;;21.74;69.85
76337;BME280;65157;50.082;18.178;2023-09-19T12:18:53;98873.30;;;21.76;69.39
76337;BME280;65157;50.082;18.178;2023-09-19T12:21:23;98870.13;;;21.75;68.30
76337;BME280;65157;50.082;18.178;2023-09-19T12:24:17;98869.81;;;21.76;68.90
76337;BME280;65157;50.082;18.178;2023-09-19T12:26:44;98865.23;;;21.85;70.39
76337;BME280;65157;50.082;18.178;2023-09-19T12:29:15;98864.96;;;21.92;69.56
76337;BME280;65157;50.082;18.178;2023-09-19T12:34:18;98866.90;;;21.98;69.38
76337;BME280;65157;50.082;18.178;2023-09-19T12:36:46;98870.66;;;22.02;69.43
76337;BME280;65157;50.082;18.178;2023-09-19T12:39:23;98871.63;;;22.07;68.72
76337;BME280;65157;50.082;18.178;2023-09-19T12:41:50;98872.02;;;22.12;68.25
76337;BME280;65157;50.082;18.178;2023-09-19T12:44:17;98871.33;;;22.14;67.96
76337;BME280;65157;50.082;18.178;2023-09-19T12:46:44;98876.45;;;22.13;68.63
76337;BME280;65157;50.082;18.178;2023-09-19T12:49:16;98877.73;;;22.09;68.01
76337;BME280;65157;50.082;18.178;2023-09-19T12:51:43;98872.50;;;21.98;68.37
76337;BME280;65157;50.082;18.178;2023-09-19T12:54:11;98869.62;;;21.94;68.37
76337;BME280;65157;50.082;18.178;2023-09-19T12:56:42;98871.44;;;21.92;68.08
76337;BME280;65157;50.082;18.178;2023-09-19T12:59:11;98869.92;;;21.92;68.66
76337;BME280;65157;50.082;18.178;2023-09-19T13:01:39;98870.27;;;21.94;67.27
76337;BME280;65157;50.082;18.178;2023-09-19T13:04:18;98878.95;;;21.92;67.72
76337;BME280;65157;50.082;18.178;2023-09-19T13:06:50;98881.55;;;21.89;67.89
76337;BME280;65157;50.082;18.178;2023-09-19T13:09:18;98885.17;;;21.89;67.71
76337;BME280;65157;50.082;18.178;2023-09-19T13:11:45;98879.33;;;21.88;67.56
76337;BME280;65157;50.082;18.178;2023-09-19T13:14:23;98884.42;;;21.87;67.62
76337;BME280;65157;50.082;18.178;2023-09-19T13:17:08;98885.83;;;21.90;67.91
76337;BME280;65157;50.082;18.178;2023-09-19T13:22:49;98882.59;;;21.98;67.94
76337;BME280;65157;50.082;18.178;2023-09-19T13:25:17;98874.61;;;22.07;67.33
76337;BME280;65157;50.082;18.178;2023-09-19T13:27:49;98876.33;;;22.16;67.82
76337;BME280;65157;50.082;18.178;2023-09-19T13:30:16;98873.94;;;22.24;67.68
76337;BME280;65157;50.082;18.178;2023-09-19T13:32:44;98871.97;;;22.35;66.74
76337;BME280;65157;50.082;18.178;2023-09-19T13:35:11;98871.48;;;22.45;67.01
76337;BME280;65157;50.082;18.178;2023-09-19T13:37:41;98866.93;;;22.61;66.92
76337;BME280;65157;50.082;18.178;2023-09-19T13:40:13;98862.71;;;22.67;64.48